createdAt,value
2022-08-19T00:01:53.234Z,46.90
2022-08-19T00:04:24.283Z,47.00
2022-08-19T00:06:54.074Z,47.00
2022-08-19T00:09:23.669Z,46.80
2022-08-19T00:11:52.382Z,47.00
2022-08-19T00:14:21.501Z,47.00
2022-08-19T00:16:52.295Z,47.30
2022-08-19T00:19:20.674Z,48.00
2022-08-19T00:21:48.883Z,47.90
2022-08-19T00:24:18.615Z,48.30
2022-08-19T00:26:47.274Z,49.00
2022-08-19T00:29:18.253Z,49.60
2022-08-19T00:31:47.322Z,49.60
2022-08-19T00:34:16.714Z,49.50
2022-08-19T00:36:45.471Z,49.30
2022-08-19T00:39:14.045Z,49.40
2022-08-19T00:41:45.353Z,49.70
2022-08-19T00:44:20.241Z,49.70
2022-08-19T00:46:55.396Z,49.40
2022-08-19T00:49:31.580Z,49.50
2022-08-19T00:52:03.748Z,49.80
2022-08-19T00:54:35.017Z,49.60
2022-08-19T00:57:07.291Z,50.10
2022-08-19T00:59:56.540Z,50.40
2022-08-19T01:02:27.416Z,50.20
2022-08-19T01:04:55.766Z,50.20
2022-08-19T01:07:23.893Z,50.10
2022-08-19T01:09:52.182Z,50.00
2022-08-19T01:12:22.515Z,50.40
2022-08-19T01:14:52.181Z,50.40
2022-08-19T01:17:20.985Z,50.70
2022-08-19T01:19:50.149Z,50.50
2022-08-19T01:22:33.274Z,50.90
2022-08-19T01:25:02.310Z,51.30
2022-08-19T01:27:43.329Z,51.80
2022-08-19T01:30:15.632Z,51.40
2022-08-19T01:32:44.257Z,51.70
2022-08-19T01:35:15.056Z,51.60
2022-08-19T01:37:54.657Z,51.60
2022-08-19T01:40:24.961Z,51.70
2022-08-19T01:42:54.242Z,51.50
2022-08-19T01:45:25.951Z,52.20
2022-08-19T01:48:02.069Z,51.40
2022-08-19T01:50:31.964Z,51.60
2022-08-19T01:53:03.433Z,51.70
2022-08-19T01:55:35.432Z,51.60
2022-08-19T01:58:12.827Z,51.80
2022-08-19T02:00:41.312Z,51.60
2022-08-19T02:03:12.634Z,51.90
2022-08-19T02:05:41.975Z,52.10
2022-08-19T02:08:12.354Z,52.50
2022-08-19T02:10:42.565Z,52.10
2022-08-19T02:13:10.893Z,52.80
2022-08-19T02:15:39.529Z,52.90
2022-08-19T02:18:08.255Z,52.50
2022-08-19T02:20:36.599Z,52.50
2022-08-19T02:23:04.588Z,52.30
2022-08-19T02:25:34.137Z,52.00
2022-08-19T02:28:02.441Z,52.10
2022-08-19T02:30:30.557Z,51.80
2022-08-19T02:32:58.942Z,51.60
2022-08-19T02:35:27.714Z,51.70
2022-08-19T02:38:13.395Z,52.00
2022-08-19T02:40:42.874Z,52.30
2022-08-19T02:43:11.074Z,51.70
2022-08-19T02:45:41.595Z,51.70
2022-08-19T02:48:21.498Z,51.50
2022-08-19T02:50:53.251Z,51.60
2022-08-19T02:53:23.027Z,51.40
2022-08-19T02:55:52.489Z,51.30
2022-08-19T02:58:22.157Z,51.70
2022-08-19T03:00:52.603Z,51.60
2022-08-19T03:03:21.447Z,51.40
2022-08-19T03:05:56.858Z,51.70
2022-08-19T03:08:26.405Z,51.80
2022-08-19T03:10:55.833Z,51.70
2022-08-19T03:13:24.211Z,51.60
2022-08-19T03:15:52.341Z,51.70
2022-08-19T03:18:20.330Z,51.90
2022-08-19T03:20:53.645Z,52.10
2022-08-19T03:23:22.307Z,51.90
2022-08-19T03:26:03.183Z,51.90
2022-08-19T03:28:42.489Z,52.00
2022-08-19T03:31:44.013Z,52.10
2022-08-19T03:34:08.126Z,52.70
2022-08-19T03:36:36.168Z,52.40
2022-08-19T03:39:04.481Z,52.80
2022-08-19T03:41:45.132Z,52.70
2022-08-19T03:44:18.533Z,53.10
2022-08-19T03:46:47.718Z,53.10
2022-08-19T03:49:16.016Z,52.70
2022-08-19T03:51:47.874Z,52.90
2022-08-19T03:54:18.359Z,52.70
2022-08-19T03:56:48.235Z,52.40
2022-08-19T03:59:21.115Z,52.60
2022-08-19T04:01:49.223Z,52.30
2022-08-19T04:04:20.089Z,52.10
2022-08-19T04:06:48.722Z,52.20
2022-08-19T04:09:16.982Z,52.00
2022-08-19T04:11:48.205Z,51.80
2022-08-19T04:14:19.773Z,52.20
2022-08-19T04:16:49.100Z,52.50
2022-08-19T04:19:18.815Z,52.30
2022-08-19T04:21:50.801Z,52.20
2022-08-19T04:24:19.379Z,52.30
2022-08-19T04:26:48.673Z,52.50
2022-08-19T04:29:22.776Z,52.80
2022-08-19T04:31:51.709Z,52.50
2022-08-19T04:34:23.442Z,52.70
2022-08-19T04:36:54.734Z,52.70
2022-08-19T04:39:44.917Z,52.40
2022-08-19T04:42:31.194Z,52.40
2022-08-19T04:45:00.959Z,52.50
2022-08-19T04:47:49.340Z,52.20
2022-08-19T04:50:17.721Z,51.80
2022-08-19T04:52:47.176Z,52.20
2022-08-19T04:55:15.713Z,51.70
2022-08-19T04:57:43.739Z,51.50
2022-08-19T05:00:14.425Z,51.70
2022-08-19T05:02:42.480Z,51.50
2022-08-19T05:05:11.357Z,51.20
2022-08-19T05:07:39.752Z,50.40
2022-08-19T05:10:08.744Z,49.90
2022-08-19T05:12:36.818Z,49.60
2022-08-19T05:15:10.666Z,50.10
2022-08-19T05:30:51.699Z,48.40
2022-08-19T05:33:20.667Z,48.00
2022-08-19T05:35:50.259Z,48.20
2022-08-19T05:38:19.072Z,48.20
2022-08-19T05:40:47.910Z,48.10
2022-08-19T05:43:17.363Z,48.20
2022-08-19T05:45:48.160Z,48.00
2022-08-19T05:48:21.452Z,47.60
2022-08-19T05:50:51.127Z,47.90
2022-08-19T05:53:19.488Z,48.20
2022-08-19T05:55:47.539Z,48.30
2022-08-19T05:58:15.687Z,48.50
2022-08-19T06:00:46.098Z,48.60
2022-08-19T06:03:14.146Z,48.70
2022-08-19T06:05:50.308Z,48.50
2022-08-19T06:08:21.117Z,48.60
2022-08-19T06:11:16.732Z,48.20
2022-08-19T06:13:48.317Z,47.70
2022-08-19T06:16:20.518Z,47.90
2022-08-19T06:18:49.347Z,47.80
2022-08-19T06:21:19.224Z,47.90
2022-08-19T06:23:48.284Z,47.30
2022-08-19T06:26:17.509Z,47.50
2022-08-19T06:28:47.444Z,47.40
2022-08-19T06:31:17.074Z,47.10
2022-08-19T06:33:45.804Z,46.80
2022-08-19T06:36:28.469Z,46.20
2022-08-19T06:38:58.602Z,46.80
2022-08-19T06:41:27.012Z,46.80
2022-08-19T06:43:56.423Z,47.20
2022-08-19T06:46:25.265Z,46.60
2022-08-19T06:48:55.361Z,46.40
2022-08-19T06:51:26.209Z,46.20
2022-08-19T06:54:00.461Z,46.50
2022-08-19T06:56:34.599Z,46.20
2022-08-19T06:59:03.282Z,45.80
2022-08-19T07:01:31.446Z,46.30
2022-08-19T07:03:59.485Z,45.10
2022-08-19T07:06:44.873Z,45.60
2022-08-19T07:09:18.655Z,45.60
2022-08-19T07:11:48.307Z,46.40
2022-08-19T07:14:19.715Z,45.80
2022-08-19T07:16:49.839Z,45.10
2022-08-19T07:19:18.922Z,45.40
2022-08-19T07:21:50.467Z,46.30
2022-08-19T07:24:24.738Z,44.90
2022-08-19T07:26:54.008Z,45.10
2022-08-19T07:29:28.655Z,44.30
2022-08-19T07:32:00.153Z,44.30
2022-08-19T07:34:30.718Z,44.30
2022-08-19T07:37:00.509Z,44.10
2022-08-19T07:39:32.000Z,44.30
2022-08-19T07:42:09.900Z,43.00
2022-08-19T07:44:43.765Z,43.40
2022-08-19T07:47:50.060Z,43.20
2022-08-19T07:50:18.890Z,43.50
2022-08-19T07:52:50.375Z,43.00
2022-08-19T07:55:40.741Z,43.30
2022-08-19T07:58:09.412Z,43.40
2022-08-19T08:00:37.763Z,43.20
2022-08-19T08:03:05.910Z,43.10
2022-08-19T08:06:00.605Z,43.20
2022-08-19T08:08:59.922Z,41.80
2022-08-19T08:11:27.967Z,42.10
2022-08-19T08:14:01.359Z,41.70
2022-08-19T08:16:35.495Z,41.90
2022-08-19T08:19:14.696Z,41.60
2022-08-19T08:21:54.754Z,41.70
2022-08-19T08:24:28.515Z,42.20
2022-08-19T08:26:58.615Z,41.10
2022-08-19T08:29:34.715Z,41.00
2022-08-19T08:32:14.754Z,41.40
2022-08-19T08:34:43.401Z,40.70
2022-08-19T08:37:11.469Z,40.80
2022-08-19T08:39:40.873Z,41.90
2022-08-19T08:42:18.013Z,40.50
2022-08-19T08:47:27.899Z,40.50
2022-08-19T08:50:00.663Z,41.20
2022-08-19T08:52:33.374Z,39.30
2022-08-19T08:55:10.305Z,40.40
2022-08-19T08:57:55.652Z,39.60
2022-08-19T09:00:27.590Z,38.80
2022-08-19T09:02:56.505Z,38.50
2022-08-19T09:05:28.814Z,38.90
2022-08-19T09:08:13.664Z,38.90
2022-08-19T09:10:55.072Z,37.50
2022-08-19T09:13:37.477Z,38.70
2022-08-19T09:16:09.905Z,38.80
2022-08-19T09:18:42.908Z,38.80
2022-08-19T09:21:12.400Z,38.70
2022-08-19T09:23:40.517Z,37.50
2022-08-19T09:26:14.464Z,37.40
2022-08-19T09:28:48.765Z,36.90
2022-08-19T09:31:19.106Z,36.60
2022-08-19T09:33:48.692Z,36.70
2022-08-19T09:36:31.183Z,36.70
2022-08-19T09:39:16.067Z,37.20
2022-08-19T09:41:47.449Z,37.50
2022-08-19T09:44:19.114Z,37.40
2022-08-19T09:46:48.861Z,36.70
2022-08-19T09:49:18.336Z,36.20
2022-08-19T09:51:51.259Z,36.90
2022-08-19T09:54:23.657Z,36.00
2022-08-19T09:56:54.481Z,36.20
2022-08-19T09:59:22.710Z,34.80
2022-08-19T10:01:51.937Z,35.10
2022-08-19T10:04:22.294Z,35.60
2022-08-19T10:06:53.972Z,35.30
2022-08-19T10:09:26.178Z,35.10
2022-08-19T10:12:03.817Z,34.40
2022-08-19T10:14:32.307Z,35.30
2022-08-19T10:17:01.277Z,34.00
2022-08-19T10:19:36.657Z,34.40
2022-08-19T10:22:06.466Z,33.30
2022-08-19T10:24:40.317Z,32.60
2022-08-19T10:27:11.143Z,33.70
2022-08-19T10:29:39.172Z,33.00
2022-08-19T10:32:14.652Z,33.30
2022-08-19T10:34:48.286Z,33.80
2022-08-19T10:37:23.763Z,33.30
2022-08-19T10:39:57.163Z,32.10
2022-08-19T10:42:26.681Z,33.30
2022-08-19T10:44:54.696Z,33.10
2022-08-19T10:47:26.064Z,32.20
2022-08-19T10:50:17.259Z,32.90
2022-08-19T10:52:49.025Z,32.30
2022-08-19T10:55:37.044Z,33.50
2022-08-19T10:58:11.338Z,31.80
2022-08-19T11:00:39.394Z,31.40
2022-08-19T11:03:09.730Z,32.00
2022-08-19T11:05:40.122Z,32.10
2022-08-19T11:08:22.248Z,31.10
2022-08-19T11:10:54.532Z,31.10
2022-08-19T11:13:24.248Z,31.20
2022-08-19T11:16:03.836Z,30.00
2022-08-19T11:18:35.027Z,30.70
2022-08-19T11:21:11.344Z,30.60
2022-08-19T11:23:39.585Z,30.80
2022-08-19T11:26:07.859Z,30.50
2022-08-19T11:28:37.609Z,30.30
2022-08-19T11:31:06.069Z,30.70
2022-08-19T11:33:34.730Z,30.90
2022-08-19T11:36:03.483Z,31.70
2022-08-19T11:38:31.557Z,31.70
2022-08-19T11:41:01.998Z,31.70
2022-08-19T11:43:35.480Z,31.80
2022-08-19T11:46:08.716Z,31.70
2022-08-19T11:48:37.776Z,30.80
2022-08-19T11:51:08.082Z,31.40
2022-08-19T11:53:36.440Z,30.70
2022-08-19T11:56:08.689Z,31.10
2022-08-19T11:58:37.939Z,32.20
2022-08-19T12:01:10.001Z,31.80
2022-08-19T12:03:39.822Z,32.50
2022-08-19T12:06:09.630Z,31.40
2022-08-19T12:08:39.445Z,31.40
2022-08-19T12:11:08.825Z,31.40
2022-08-19T12:13:37.385Z,32.20
2022-08-19T12:16:13.253Z,31.80
2022-08-19T12:18:44.469Z,31.00
2022-08-19T12:21:14.581Z,30.80
2022-08-19T12:23:42.669Z,30.80
2022-08-19T12:26:11.413Z,30.70
2022-08-19T12:28:40.148Z,30.70
2022-08-19T12:31:13.429Z,31.60
2022-08-19T12:33:41.776Z,31.60
2022-08-19T12:36:12.127Z,31.90
2022-08-19T12:38:41.545Z,31.40
2022-08-19T12:41:13.137Z,31.30
2022-08-19T12:43:42.111Z,31.80
2022-08-19T12:46:12.541Z,31.30
2022-08-19T12:48:42.767Z,31.20
2022-08-19T12:51:13.180Z,31.70
2022-08-19T12:53:41.924Z,31.40
2022-08-19T12:56:12.454Z,31.70
2022-08-19T12:58:42.611Z,31.80
2022-08-19T13:01:21.952Z,31.80
2022-08-19T13:03:51.561Z,31.50
2022-08-19T13:06:22.282Z,32.10
2022-08-19T13:08:50.561Z,31.40
2022-08-19T13:11:25.208Z,32.00
2022-08-19T13:13:56.112Z,31.40
2022-08-19T13:16:25.776Z,32.30
2022-08-19T13:18:53.816Z,32.40
2022-08-19T13:21:23.792Z,32.40
2022-08-19T13:23:53.312Z,32.50
2022-08-19T13:26:21.919Z,31.70
2022-08-19T13:29:07.691Z,32.70
2022-08-19T13:31:56.175Z,32.70
2022-08-19T13:34:30.802Z,32.20
2022-08-19T13:37:00.018Z,32.20
2022-08-19T13:39:28.341Z,32.10
2022-08-19T13:41:56.894Z,31.70
2022-08-19T13:44:24.981Z,32.40
2022-08-19T13:46:54.531Z,31.90
2022-08-19T13:49:24.068Z,31.80
2022-08-19T13:51:52.276Z,31.80
2022-08-19T13:54:20.448Z,31.20
2022-08-19T13:56:49.941Z,31.30
2022-08-19T13:59:18.602Z,31.40
2022-08-19T14:01:46.674Z,32.20
2022-08-19T14:04:16.081Z,31.30
2022-08-19T14:06:44.107Z,30.80
2022-08-19T14:09:12.148Z,31.10
2022-08-19T14:11:40.505Z,30.30
2022-08-19T14:14:09.406Z,30.40
2022-08-19T14:16:40.124Z,30.70
2022-08-19T14:19:08.880Z,30.30
2022-08-19T14:21:41.502Z,31.10
2022-08-19T14:24:12.582Z,30.30
2022-08-19T14:26:40.634Z,30.90
2022-08-19T14:29:11.420Z,30.90
2022-08-19T14:31:42.289Z,30.90
2022-08-19T14:34:11.008Z,31.40
2022-08-19T14:36:40.494Z,31.70
2022-08-19T14:39:09.359Z,31.90
2022-08-19T14:41:38.039Z,32.00
2022-08-19T14:44:06.420Z,31.80
2022-08-19T14:46:34.543Z,31.70
2022-08-19T14:49:09.207Z,31.80
2022-08-19T14:51:37.735Z,32.20
2022-08-19T14:54:07.220Z,32.50
2022-08-19T14:56:35.878Z,32.60
2022-08-19T14:59:04.005Z,33.10
2022-08-19T15:01:32.125Z,32.70
2022-08-19T15:04:00.324Z,32.70
2022-08-19T15:06:28.908Z,32.80
2022-08-19T15:09:00.763Z,32.40
2022-08-19T15:11:33.742Z,32.40
2022-08-19T15:14:03.518Z,32.50
2022-08-19T15:16:31.588Z,33.20
2022-08-19T15:19:00.890Z,33.40
2022-08-19T15:21:30.315Z,33.30
2022-08-19T15:23:59.769Z,32.20
2022-08-19T15:26:28.946Z,32.50
2022-08-19T15:28:58.884Z,31.50
2022-08-19T15:31:32.902Z,32.30
2022-08-19T15:34:00.937Z,32.10
2022-08-19T15:36:29.291Z,32.70
2022-08-19T15:39:00.055Z,31.80
2022-08-19T15:41:31.506Z,31.30
2022-08-19T15:44:08.831Z,31.60
2022-08-19T15:46:39.698Z,31.70
2022-08-19T15:49:08.372Z,32.20
2022-08-19T15:51:39.093Z,32.40
2022-08-19T15:54:10.172Z,32.90
2022-08-19T15:57:01.431Z,33.50
2022-08-19T15:59:50.455Z,34.00
2022-08-19T16:02:38.395Z,33.70
2022-08-19T16:05:27.637Z,34.80
2022-08-19T16:07:57.195Z,35.30
2022-08-19T16:10:27.472Z,35.70
2022-08-19T16:12:57.042Z,35.80
2022-08-19T16:15:27.920Z,35.80
2022-08-19T16:17:57.673Z,36.20
2022-08-19T16:20:27.680Z,36.30
2022-08-19T16:22:56.460Z,36.60
2022-08-19T16:25:27.571Z,36.80
2022-08-19T16:28:06.537Z,37.00
2022-08-19T16:30:39.105Z,37.10
2022-08-19T16:33:08.332Z,37.60
2022-08-19T16:35:36.516Z,37.70
2022-08-19T16:38:05.889Z,37.60
2022-08-19T16:40:34.595Z,37.50
2022-08-19T16:43:03.471Z,37.50
2022-08-19T16:45:32.341Z,38.10
2022-08-19T16:48:01.767Z,38.10
2022-08-19T16:50:48.114Z,38.10
2022-08-19T16:53:18.741Z,38.20
2022-08-19T16:55:50.898Z,38.40
2022-08-19T16:58:19.310Z,38.00
2022-08-19T17:00:48.593Z,38.20
2022-08-19T17:03:18.380Z,38.10
2022-08-19T17:05:48.632Z,37.90
2022-08-19T17:08:18.455Z,38.10
2022-08-19T17:11:02.114Z,38.10
2022-08-19T17:13:35.223Z,38.50
2022-08-19T17:16:03.954Z,38.60
2022-08-19T17:18:33.746Z,38.60
2022-08-19T17:21:02.426Z,38.70
2022-08-19T17:23:43.064Z,38.70
2022-08-19T17:26:18.127Z,38.60
2022-08-19T17:28:47.961Z,38.60
2022-08-19T17:31:16.579Z,38.80
2022-08-19T17:33:48.561Z,38.90
2022-08-19T17:36:18.094Z,39.10
2022-08-19T17:38:46.826Z,39.10
2022-08-19T17:41:14.889Z,39.20
2022-08-19T17:43:44.073Z,39.40
2022-08-19T17:46:17.811Z,39.60
2022-08-19T17:48:52.769Z,39.70
2022-08-19T17:51:24.517Z,39.70
2022-08-19T17:53:54.878Z,39.90
2022-08-19T17:56:23.549Z,39.90
2022-08-19T17:58:59.693Z,39.90
2022-08-19T18:01:52.470Z,39.90
2022-08-19T18:04:22.026Z,39.80
2022-08-19T18:06:53.283Z,40.00
2022-08-19T18:09:26.122Z,40.20
2022-08-19T18:11:56.904Z,40.10
2022-08-19T18:14:32.834Z,40.40
2022-08-19T18:17:06.128Z,40.20
2022-08-19T18:19:41.266Z,40.40
2022-08-19T18:22:12.501Z,40.20
2022-08-19T18:24:41.488Z,40.30
2022-08-19T18:27:10.125Z,40.40
2022-08-19T18:29:40.095Z,40.30
2022-08-19T18:32:13.198Z,40.30
2022-08-19T18:34:43.749Z,40.60
2022-08-19T18:37:12.177Z,40.50
2022-08-19T18:39:58.261Z,40.40
2022-08-19T18:42:43.495Z,40.50
2022-08-19T18:45:29.775Z,40.60
2022-08-19T18:48:26.345Z,41.80
2022-08-19T18:50:58.847Z,43.10
2022-08-19T18:53:30.011Z,44.80
2022-08-19T18:55:58.429Z,46.70
2022-08-19T18:58:32.004Z,48.20
2022-08-19T19:01:00.854Z,48.50
2022-08-19T19:03:29.256Z,48.80
2022-08-19T19:05:58.808Z,49.20
2022-08-19T19:08:27.591Z,49.40
2022-08-19T19:10:56.981Z,50.00
2022-08-19T19:13:25.017Z,50.70
2022-08-19T19:15:54.349Z,50.90
2022-08-19T19:18:22.384Z,50.90
2022-08-19T19:20:50.762Z,50.90
2022-08-19T19:23:20.578Z,51.20
2022-08-19T19:25:52.235Z,51.50
2022-08-19T19:28:27.280Z,51.20
2022-08-19T19:30:58.424Z,51.30
2022-08-19T19:33:26.680Z,51.50
2022-08-19T19:35:56.319Z,52.10
2022-08-19T19:38:25.701Z,51.90
2022-08-19T19:40:53.730Z,51.40
2022-08-19T19:43:21.819Z,51.20
2022-08-19T19:45:49.944Z,50.90
2022-08-19T19:48:18.993Z,50.60
2022-08-19T19:50:54.293Z,50.90
2022-08-19T19:53:27.513Z,51.20
2022-08-19T19:55:58.710Z,50.60
2022-08-19T19:58:29.004Z,50.90
2022-08-19T20:01:02.505Z,50.80
2022-08-19T20:03:40.039Z,50.30
2022-08-19T20:06:09.114Z,50.80
2022-08-19T20:08:55.893Z,50.80
2022-08-19T20:11:32.134Z,50.70
2022-08-19T20:14:02.429Z,51.10
2022-08-19T20:16:31.065Z,50.80
2022-08-19T20:19:00.482Z,50.60
2022-08-19T20:21:32.309Z,51.30
2022-08-19T20:24:09.176Z,51.80
2022-08-19T20:26:38.338Z,51.80
2022-08-19T20:29:13.909Z,52.20
2022-08-19T20:31:57.751Z,52.00
2022-08-19T20:34:28.669Z,52.40
2022-08-19T20:36:57.051Z,52.40
2022-08-19T20:39:29.424Z,52.70
2022-08-19T20:41:57.749Z,52.40
2022-08-19T20:44:25.854Z,52.20
2022-08-19T20:46:54.827Z,52.10
2022-08-19T20:49:26.940Z,52.30
2022-08-19T20:51:55.926Z,52.40
2022-08-19T20:54:24.247Z,52.50
2022-08-19T20:56:57.183Z,52.80
2022-08-19T20:59:25.806Z,52.60
2022-08-19T21:01:54.351Z,52.60
2022-08-19T21:04:23.230Z,52.90
2022-08-19T21:06:51.301Z,53.00
2022-08-19T21:09:20.186Z,53.00
2022-08-19T21:11:48.709Z,52.70
2022-08-19T21:14:21.604Z,52.90
2022-08-19T21:16:50.387Z,53.40
2022-08-19T21:19:23.284Z,53.60
2022-08-19T21:21:52.241Z,53.40
2022-08-19T21:24:20.315Z,53.10
2022-08-19T21:26:51.304Z,53.00
2022-08-19T21:29:21.496Z,53.20
2022-08-19T21:31:50.211Z,53.10
2022-08-19T21:34:18.505Z,53.00
2022-08-19T21:36:46.508Z,53.50
2022-08-19T21:39:14.543Z,53.30
2022-08-19T21:41:43.706Z,53.30
2022-08-19T21:44:12.071Z,54.20
2022-08-19T21:46:41.456Z,53.40
2022-08-19T21:49:09.457Z,53.30
2022-08-19T21:51:40.310Z,53.70
2022-08-19T21:54:08.403Z,54.10
2022-08-19T21:56:42.807Z,54.30
2022-08-19T21:59:10.820Z,54.50
2022-08-19T22:01:38.864Z,54.50
2022-08-19T22:04:10.192Z,54.20
2022-08-19T22:06:38.558Z,54.60
2022-08-19T22:09:06.607Z,54.80
2022-08-19T22:11:34.868Z,54.70
2022-08-19T22:14:03.880Z,55.50
2022-08-19T22:16:32.615Z,55.70
2022-08-19T22:19:00.624Z,56.50
2022-08-19T22:21:39.778Z,56.40
2022-08-19T22:24:09.289Z,56.50
2022-08-19T22:26:37.327Z,56.50
2022-08-19T22:29:05.381Z,56.70
2022-08-19T22:31:37.504Z,56.20
2022-08-19T22:34:06.908Z,56.60
2022-08-19T22:36:36.264Z,56.70
2022-08-19T22:39:05.893Z,56.80
2022-08-19T22:41:34.477Z,56.70
2022-08-19T22:44:03.805Z,56.90
2022-08-19T22:46:34.238Z,56.80
2022-08-19T22:49:02.430Z,56.60
2022-08-19T22:51:48.493Z,55.70
2022-08-19T22:54:18.024Z,55.70
2022-08-19T22:56:46.561Z,55.70
2022-08-19T22:59:14.612Z,54.50
2022-08-19T23:01:42.732Z,54.60
2022-08-19T23:04:11.493Z,54.90
2022-08-19T23:06:42.209Z,54.50
2022-08-19T23:09:16.511Z,54.40
2022-08-19T23:11:46.541Z,54.00
2022-08-19T23:14:15.864Z,53.70
2022-08-19T23:16:50.484Z,53.80
2022-08-19T23:19:22.284Z,53.60
2022-08-19T23:21:52.494Z,53.70
2022-08-19T23:24:20.538Z,53.30
2022-08-19T23:27:07.301Z,53.30
2022-08-19T23:29:55.222Z,53.50
2022-08-19T23:32:25.438Z,54.00
2022-08-19T23:34:56.046Z,53.70
2022-08-19T23:37:25.496Z,53.90
2022-08-19T23:39:53.567Z,53.90
2022-08-19T23:42:23.610Z,53.70
2022-08-19T23:44:53.041Z,53.60
2022-08-19T23:47:21.890Z,53.50
2022-08-19T23:49:50.618Z,53.70
2022-08-19T23:52:18.851Z,54.60
2022-08-19T23:54:46.939Z,54.20
2022-08-19T23:57:15.040Z,54.80
2022-08-19T23:59:48.181Z,55.30
